sensor_id;sensor_type;location;lat;lon;timestamp;P1;durP1;ratioP1;P2;durP2;ratioP2
81298;SDS011;70766;53.170;18.160;2023-10-08T00:01:22;13.40;;;1.80;;
81298;SDS011;70766;53.170;18.160;2023-10-08T00:03:51;8.80;;;1.40;;
81298;SDS011;70766;53.170;18.160;2023-10-08T00:06:26;6.30;;;1.50;;
81298;SDS011;70766;53.170;18.160;2023-10-08T00:08:56;8.50;;;2.10;;
81298;SDS011;70766;53.170;18.160;2023-10-08T00:11:38;7.90;;;1.60;;
81298;SDS011;70766;53.170;18.160;2023-10-08T00:14:08;5.70;;;1.60;;
81298;SDS011;70766;53.170;18.160;2023-10-08T00:16:38;7.30;;;1.50;;
81298;SDS011;70766;53.170;18.160;2023-10-08T00:19:10;7.30;;;1.30;;
81298;SDS011;70766;53.170;18.160;2023-10-08T00:21:43;7.80;;;1.60;;
81298;SDS011;70766;53.170;18.160;2023-10-08T00:24:14;5.50;;;1.50;;
81298;SDS011;70766;53.170;18.160;2023-10-08T00:26:44;10.20;;;1.40;;
81298;SDS011;70766;53.170;18.160;2023-10-08T00:29:12;10.80;;;1.70;;
81298;SDS011;70766;53.170;18.160;2023-10-08T00:31:50;6.50;;;1.60;;
81298;SDS011;70766;53.170;18.160;2023-10-08T00:34:18;6.90;;;1.20;;
81298;SDS011;70766;53.170;18.160;2023-10-08T00:36:48;7.50;;;1.10;;
81298;SDS011;70766;53.170;18.160;2023-10-08T00:39:17;7.40;;;1.20;;
81298;SDS011;70766;53.170;18.160;2023-10-08T00:41:52;5.20;;;0.90;;
81298;SDS011;70766;53.170;18.160;2023-10-08T00:44:27;5.50;;;1.20;;
81298;SDS011;70766;53.170;18.160;2023-10-08T00:47:00;4.40;;;1.10;;
81298;SDS011;70766;53.170;18.160;2023-10-08T00:49:29;4.70;;;1.00;;
81298;SDS011;70766;53.170;18.160;2023-10-08T00:52:08;6.30;;;1.50;;
81298;SDS011;70766;53.170;18.160;2023-10-08T00:54:38;10.20;;;1.40;;
81298;SDS011;70766;53.170;18.160;2023-10-08T00:57:25;3.80;;;1.50;;
81298;SDS011;70766;53.170;18.160;2023-10-08T00:59:58;6.50;;;1.60;;
81298;SDS011;70766;53.170;18.160;2023-10-08T01:02:29;6.60;;;1.20;;
81298;SDS011;70766;53.170;18.160;2023-10-08T01:05:13;5.10;;;1.30;;
81298;SDS011;70766;53.170;18.160;2023-10-08T01:07:46;6.10;;;1.20;;
81298;SDS011;70766;53.170;18.160;2023-10-08T01:10:19;5.80;;;1.80;;
81298;SDS011;70766;53.170;18.160;2023-10-08T01:12:48;5.80;;;1.20;;
81298;SDS011;70766;53.170;18.160;2023-10-08T01:15:22;4.20;;;1.00;;
81298;SDS011;70766;53.170;18.160;2023-10-08T01:17:57;5.50;;;1.00;;
81298;SDS011;70766;53.170;18.160;2023-10-08T01:20:29;6.00;;;0.90;;
81298;SDS011;70766;53.170;18.160;2023-10-08T01:23:16;3.30;;;1.00;;
81298;SDS011;70766;53.170;18.160;2023-10-08T01:25:48;4.30;;;1.10;;
81298;SDS011;70766;53.170;18.160;2023-10-08T01:28:24;5.30;;;1.20;;
81298;SDS011;70766;53.170;18.160;2023-10-08T01:30:59;5.90;;;1.10;;
81298;SDS011;70766;53.170;18.160;2023-10-08T01:33:28;3.80;;;0.90;;
81298;SDS011;70766;53.170;18.160;2023-10-08T01:35:57;3.40;;;1.00;;
81298;SDS011;70766;53.170;18.160;2023-10-08T01:38:31;5.20;;;1.40;;
81298;SDS011;70766;53.170;18.160;2023-10-08T01:41:03;3.10;;;1.00;;
81298;SDS011;70766;53.170;18.160;2023-10-08T01:43:39;6.20;;;1.30;;
81298;SDS011;70766;53.170;18.160;2023-10-08T01:46:08;3.00;;;1.00;;
81298;SDS011;70766;53.170;18.160;2023-10-08T01:48:39;1.20;;;0.50;;
81298;SDS011;70766;53.170;18.160;2023-10-08T01:51:09;3.20;;;0.60;;
81298;SDS011;70766;53.170;18.160;2023-10-08T01:53:39;2.70;;;0.60;;
81298;SDS011;70766;53.170;18.160;2023-10-08T01:56:09;3.50;;;0.80;;
81298;SDS011;70766;53.170;18.160;2023-10-08T01:58:38;3.60;;;0.50;;
81298;SDS011;70766;53.170;18.160;2023-10-08T02:01:07;1.60;;;0.50;;
81298;SDS011;70766;53.170;18.160;2023-10-08T02:03:40;2.20;;;0.60;;
81298;SDS011;70766;53.170;18.160;2023-10-08T02:06:11;2.00;;;0.70;;
81298;SDS011;70766;53.170;18.160;2023-10-08T02:08:41;1.30;;;0.40;;
81298;SDS011;70766;53.170;18.160;2023-10-08T02:11:09;1.70;;;0.50;;
81298;SDS011;70766;53.170;18.160;2023-10-08T02:13:38;0.70;;;0.40;;
81298;SDS011;70766;53.170;18.160;2023-10-08T02:16:07;1.20;;;0.60;;
81298;SDS011;70766;53.170;18.160;2023-10-08T02:18:35;1.10;;;0.50;;
81298;SDS011;70766;53.170;18.160;2023-10-08T02:21:05;2.80;;;0.50;;
81298;SDS011;70766;53.170;18.160;2023-10-08T02:23:33;1.70;;;0.50;;
81298;SDS011;70766;53.170;18.160;2023-10-08T02:26:03;1.10;;;0.50;;
81298;SDS011;70766;53.170;18.160;2023-10-08T02:28:31;1.40;;;0.40;;
81298;SDS011;70766;53.170;18.160;2023-10-08T02:31:01;1.10;;;0.60;;
81298;SDS011;70766;53.170;18.160;2023-10-08T02:33:29;0.90;;;0.40;;
81298;SDS011;70766;53.170;18.160;2023-10-08T02:35:58;2.10;;;0.50;;
81298;SDS011;70766;53.170;18.160;2023-10-08T02:38:28;1.20;;;0.40;;
81298;SDS011;70766;53.170;18.160;2023-10-08T02:40:57;0.90;;;0.40;;
81298;SDS011;70766;53.170;18.160;2023-10-08T02:43:27;0.50;;;0.30;;
81298;SDS011;70766;53.170;18.160;2023-10-08T02:45:58;1.50;;;0.50;;
81298;SDS011;70766;53.170;18.160;2023-10-08T02:48:27;1.00;;;0.50;;
81298;SDS011;70766;53.170;18.160;2023-10-08T02:50:57;0.70;;;0.40;;
81298;SDS011;70766;53.170;18.160;2023-10-08T02:53:34;0.80;;;0.40;;
81298;SDS011;70766;53.170;18.160;2023-10-08T02:56:03;0.60;;;0.30;;
81298;SDS011;70766;53.170;18.160;2023-10-08T02:58:40;1.30;;;0.50;;
81298;SDS011;70766;53.170;18.160;2023-10-08T03:01:08;1.20;;;0.40;;
81298;SDS011;70766;53.170;18.160;2023-10-08T03:03:40;1.90;;;0.70;;
81298;SDS011;70766;53.170;18.160;2023-10-08T03:06:14;1.40;;;0.50;;
81298;SDS011;70766;53.170;18.160;2023-10-08T03:08:43;1.00;;;0.40;;
81298;SDS011;70766;53.170;18.160;2023-10-08T03:11:11;2.10;;;0.40;;
81298;SDS011;70766;53.170;18.160;2023-10-08T03:13:44;2.00;;;0.40;;
81298;SDS011;70766;53.170;18.160;2023-10-08T03:16:19;0.90;;;0.40;;
81298;SDS011;70766;53.170;18.160;2023-10-08T03:18:55;1.20;;;0.50;;
81298;SDS011;70766;53.170;18.160;2023-10-08T03:21:25;1.00;;;0.50;;
81298;SDS011;70766;53.170;18.160;2023-10-08T03:24:05;1.60;;;0.40;;
81298;SDS011;70766;53.170;18.160;2023-10-08T03:26:51;2.20;;;0.40;;
81298;SDS011;70766;53.170;18.160;2023-10-08T03:29:23;2.50;;;0.50;;
81298;SDS011;70766;53.170;18.160;2023-10-08T03:31:59;2.50;;;0.40;;
81298;SDS011;70766;53.170;18.160;2023-10-08T03:34:33;1.10;;;0.40;;
81298;SDS011;70766;53.170;18.160;2023-10-08T03:37:02;1.40;;;0.40;;
81298;SDS011;70766;53.170;18.160;2023-10-08T03:39:34;1.70;;;0.40;;
81298;SDS011;70766;53.170;18.160;2023-10-08T03:42:24;1.40;;;0.50;;
81298;SDS011;70766;53.170;18.160;2023-10-08T03:44:53;1.30;;;0.50;;
81298;SDS011;70766;53.170;18.160;2023-10-08T03:47:24;1.10;;;0.30;;
81298;SDS011;70766;53.170;18.160;2023-10-08T03:49:55;1.50;;;0.50;;
81298;SDS011;70766;53.170;18.160;2023-10-08T03:52:23;1.90;;;0.40;;
81298;SDS011;70766;53.170;18.160;2023-10-08T03:54:54;0.90;;;0.40;;
81298;SDS011;70766;53.170;18.160;2023-10-08T03:57:48;0.80;;;0.50;;
81298;SDS011;70766;53.170;18.160;2023-10-08T04:00:25;1.10;;;0.40;;
81298;SDS011;70766;53.170;18.160;2023-10-08T04:03:00;0.40;;;0.40;;
81298;SDS011;70766;53.170;18.160;2023-10-08T04:05:37;1.50;;;0.50;;
81298;SDS011;70766;53.170;18.160;2023-10-08T04:08:28;2.00;;;0.50;;
81298;SDS011;70766;53.170;18.160;2023-10-08T04:11:24;3.10;;;0.50;;
81298;SDS011;70766;53.170;18.160;2023-10-08T04:14:04;3.50;;;0.40;;
81298;SDS011;70766;53.170;18.160;2023-10-08T04:16:32;1.70;;;0.30;;
81298;SDS011;70766;53.170;18.160;2023-10-08T04:19:06;1.00;;;0.50;;
81298;SDS011;70766;53.170;18.160;2023-10-08T04:21:35;2.40;;;0.40;;
81298;SDS011;70766;53.170;18.160;2023-10-08T04:24:03;0.60;;;0.40;;
81298;SDS011;70766;53.170;18.160;2023-10-08T04:26:32;2.10;;;0.30;;
81298;SDS011;70766;53.170;18.160;2023-10-08T04:29:01;1.40;;;0.50;;
81298;SDS011;70766;53.170;18.160;2023-10-08T04:31:34;1.10;;;0.50;;
81298;SDS011;70766;53.170;18.160;2023-10-08T04:34:11;1.00;;;0.40;;
81298;SDS011;70766;53.170;18.160;2023-10-08T04:36:49;1.20;;;0.60;;
81298;SDS011;70766;53.170;18.160;2023-10-08T04:39:28;1.50;;;0.30;;
81298;SDS011;70766;53.170;18.160;2023-10-08T04:42:01;2.50;;;0.50;;
81298;SDS011;70766;53.170;18.160;2023-10-08T04:44:38;3.20;;;0.50;;
81298;SDS011;70766;53.170;18.160;2023-10-08T04:47:11;3.60;;;0.60;;
81298;SDS011;70766;53.170;18.160;2023-10-08T04:50:02;1.80;;;0.40;;
81298;SDS011;70766;53.170;18.160;2023-10-08T04:52:33;2.00;;;0.40;;
81298;SDS011;70766;53.170;18.160;2023-10-08T04:55:03;2.60;;;0.70;;
81298;SDS011;70766;53.170;18.160;2023-10-08T04:57:43;1.10;;;0.40;;
81298;SDS011;70766;53.170;18.160;2023-10-08T05:00:11;1.20;;;0.60;;
81298;SDS011;70766;53.170;18.160;2023-10-08T05:02:44;1.70;;;0.40;;
81298;SDS011;70766;53.170;18.160;2023-10-08T05:05:18;0.90;;;0.40;;
81298;SDS011;70766;53.170;18.160;2023-10-08T05:07:46;1.90;;;0.40;;
81298;SDS011;70766;53.170;18.160;2023-10-08T05:10:17;1.30;;;0.40;;
81298;SDS011;70766;53.170;18.160;2023-10-08T05:12:52;2.30;;;0.40;;
81298;SDS011;70766;53.170;18.160;2023-10-08T05:15:32;1.50;;;0.60;;
81298;SDS011;70766;53.170;18.160;2023-10-08T05:18:03;0.80;;;0.40;;
81298;SDS011;70766;53.170;18.160;2023-10-08T05:20:51;4.50;;;0.50;;
81298;SDS011;70766;53.170;18.160;2023-10-08T05:23:19;0.80;;;0.30;;
81298;SDS011;70766;53.170;18.160;2023-10-08T05:25:57;2.70;;;0.40;;
81298;SDS011;70766;53.170;18.160;2023-10-08T05:28:36;2.50;;;0.50;;
81298;SDS011;70766;53.170;18.160;2023-10-08T05:31:29;2.00;;;0.40;;
81298;SDS011;70766;53.170;18.160;2023-10-08T05:34:13;1.10;;;0.40;;
81298;SDS011;70766;53.170;18.160;2023-10-08T05:37:00;1.30;;;0.50;;
81298;SDS011;70766;53.170;18.160;2023-10-08T05:39:28;3.50;;;0.50;;
81298;SDS011;70766;53.170;18.160;2023-10-08T05:42:10;1.60;;;0.40;;
81298;SDS011;70766;53.170;18.160;2023-10-08T05:45:01;4.20;;;0.60;;
81298;SDS011;70766;53.170;18.160;2023-10-08T05:47:38;1.80;;;0.50;;
81298;SDS011;70766;53.170;18.160;2023-10-08T05:50:09;2.40;;;0.50;;
81298;SDS011;70766;53.170;18.160;2023-10-08T05:52:46;1.40;;;0.50;;
81298;SDS011;70766;53.170;18.160;2023-10-08T05:55:21;2.30;;;0.60;;
81298;SDS011;70766;53.170;18.160;2023-10-08T05:57:59;4.00;;;0.50;;
81298;SDS011;70766;53.170;18.160;2023-10-08T06:00:47;1.40;;;0.40;;
81298;SDS011;70766;53.170;18.160;2023-10-08T06:03:20;1.90;;;0.50;;
81298;SDS011;70766;53.170;18.160;2023-10-08T06:06:06;2.10;;;0.60;;
81298;SDS011;70766;53.170;18.160;2023-10-08T06:08:38;2.10;;;0.70;;
81298;SDS011;70766;53.170;18.160;2023-10-08T06:11:25;2.00;;;0.70;;
81298;SDS011;70766;53.170;18.160;2023-10-08T06:14:14;3.00;;;0.70;;
81298;SDS011;70766;53.170;18.160;2023-10-08T06:16:46;1.40;;;0.50;;
81298;SDS011;70766;53.170;18.160;2023-10-08T06:19:30;2.90;;;0.50;;
81298;SDS011;70766;53.170;18.160;2023-10-08T06:21:59;5.00;;;1.20;;
81298;SDS011;70766;53.170;18.160;2023-10-08T06:24:33;5.20;;;0.70;;
81298;SDS011;70766;53.170;18.160;2023-10-08T06:27:08;2.00;;;0.90;;
81298;SDS011;70766;53.170;18.160;2023-10-08T06:29:38;2.60;;;0.70;;
81298;SDS011;70766;53.170;18.160;2023-10-08T06:32:13;2.10;;;0.60;;
81298;SDS011;70766;53.170;18.160;2023-10-08T06:34:41;2.90;;;0.70;;
81298;SDS011;70766;53.170;18.160;2023-10-08T06:37:09;1.10;;;0.40;;
81298;SDS011;70766;53.170;18.160;2023-10-08T06:39:42;1.10;;;0.50;;
81298;SDS011;70766;53.170;18.160;2023-10-08T06:42:16;1.90;;;0.70;;
81298;SDS011;70766;53.170;18.160;2023-10-08T06:44:45;2.10;;;0.60;;
81298;SDS011;70766;53.170;18.160;2023-10-08T06:47:16;1.80;;;0.80;;
81298;SDS011;70766;53.170;18.160;2023-10-08T06:49:47;2.30;;;0.70;;
81298;SDS011;70766;53.170;18.160;2023-10-08T06:52:15;1.20;;;0.40;;
81298;SDS011;70766;53.170;18.160;2023-10-08T06:54:43;2.00;;;0.60;;
81298;SDS011;70766;53.170;18.160;2023-10-08T06:57:11;2.50;;;0.70;;
81298;SDS011;70766;53.170;18.160;2023-10-08T06:59:42;1.80;;;0.60;;
81298;SDS011;70766;53.170;18.160;2023-10-08T07:02:10;2.30;;;0.70;;
81298;SDS011;70766;53.170;18.160;2023-10-08T07:04:39;1.30;;;0.50;;
81298;SDS011;70766;53.170;18.160;2023-10-08T07:07:09;1.50;;;0.60;;
81298;SDS011;70766;53.170;18.160;2023-10-08T07:09:37;2.90;;;0.90;;
81298;SDS011;70766;53.170;18.160;2023-10-08T07:12:05;1.70;;;0.70;;
81298;SDS011;70766;53.170;18.160;2023-10-08T07:14:42;2.20;;;0.50;;
81298;SDS011;70766;53.170;18.160;2023-10-08T07:17:11;1.80;;;0.70;;
81298;SDS011;70766;53.170;18.160;2023-10-08T07:19:48;2.20;;;0.50;;
81298;SDS011;70766;53.170;18.160;2023-10-08T07:22:19;1.80;;;0.70;;
81298;SDS011;70766;53.170;18.160;2023-10-08T07:24:51;1.70;;;0.50;;
81298;SDS011;70766;53.170;18.160;2023-10-08T07:27:20;1.80;;;0.50;;
81298;SDS011;70766;53.170;18.160;2023-10-08T07:30:00;1.50;;;0.40;;
81298;SDS011;70766;53.170;18.160;2023-10-08T07:32:32;1.30;;;0.40;;
81298;SDS011;70766;53.170;18.160;2023-10-08T07:35:02;2.00;;;0.50;;
81298;SDS011;70766;53.170;18.160;2023-10-08T07:37:49;1.80;;;0.80;;
81298;SDS011;70766;53.170;18.160;2023-10-08T07:40:20;4.40;;;0.60;;
81298;SDS011;70766;53.170;18.160;2023-10-08T07:42:56;1.20;;;0.50;;
81298;SDS011;70766;53.170;18.160;2023-10-08T07:45:24;1.30;;;0.40;;
81298;SDS011;70766;53.170;18.160;2023-10-08T07:47:53;3.20;;;0.60;;
81298;SDS011;70766;53.170;18.160;2023-10-08T07:50:23;1.50;;;0.60;;
81298;SDS011;70766;53.170;18.160;2023-10-08T07:52:52;1.20;;;0.50;;
81298;SDS011;70766;53.170;18.160;2023-10-08T07:55:20;0.80;;;0.40;;
81298;SDS011;70766;53.170;18.160;2023-10-08T07:57:49;1.10;;;0.60;;
81298;SDS011;70766;53.170;18.160;2023-10-08T08:00:17;1.10;;;0.40;;
81298;SDS011;70766;53.170;18.160;2023-10-08T08:02:51;0.80;;;0.60;;
81298;SDS011;70766;53.170;18.160;2023-10-08T08:05:24;1.80;;;0.70;;
81298;SDS011;70766;53.170;18.160;2023-10-08T08:07:53;1.50;;;0.70;;
81298;SDS011;70766;53.170;18.160;2023-10-08T08:10:24;2.40;;;0.60;;
81298;SDS011;70766;53.170;18.160;2023-10-08T08:12:53;2.20;;;1.30;;
81298;SDS011;70766;53.170;18.160;2023-10-08T08:15:25;2.40;;;0.60;;
81298;SDS011;70766;53.170;18.160;2023-10-08T08:17:55;2.40;;;0.70;;
81298;SDS011;70766;53.170;18.160;2023-10-08T08:20:23;0.80;;;0.60;;
81298;SDS011;70766;53.170;18.160;2023-10-08T08:23:03;1.20;;;0.70;;
81298;SDS011;70766;53.170;18.160;2023-10-08T08:25:38;1.80;;;0.60;;
81298;SDS011;70766;53.170;18.160;2023-10-08T08:28:27;0.70;;;0.50;;
81298;SDS011;70766;53.170;18.160;2023-10-08T08:31:01;1.60;;;0.50;;
81298;SDS011;70766;53.170;18.160;2023-10-08T08:33:32;1.70;;;0.50;;
81298;SDS011;70766;53.170;18.160;2023-10-08T08:36:20;1.80;;;0.50;;
81298;SDS011;70766;53.170;18.160;2023-10-08T08:38:51;1.80;;;0.60;;
81298;SDS011;70766;53.170;18.160;2023-10-08T08:41:20;1.50;;;0.50;;
81298;SDS011;70766;53.170;18.160;2023-10-08T08:43:49;1.80;;;0.50;;
81298;SDS011;70766;53.170;18.160;2023-10-08T08:46:30;1.90;;;0.50;;
81298;SDS011;70766;53.170;18.160;2023-10-08T08:49:04;0.90;;;0.50;;
81298;SDS011;70766;53.170;18.160;2023-10-08T08:51:35;1.40;;;0.60;;
81298;SDS011;70766;53.170;18.160;2023-10-08T08:54:05;1.70;;;0.60;;
81298;SDS011;70766;53.170;18.160;2023-10-08T08:56:37;1.80;;;0.80;;
81298;SDS011;70766;53.170;18.160;2023-10-08T08:59:09;3.50;;;0.60;;
81298;SDS011;70766;53.170;18.160;2023-10-08T09:01:40;0.90;;;0.60;;
81298;SDS011;70766;53.170;18.160;2023-10-08T09:04:09;2.00;;;0.70;;
81298;SDS011;70766;53.170;18.160;2023-10-08T09:06:39;1.30;;;0.50;;
81298;SDS011;70766;53.170;18.160;2023-10-08T09:09:07;1.00;;;0.70;;
81298;SDS011;70766;53.170;18.160;2023-10-08T09:11:51;1.90;;;0.60;;
81298;SDS011;70766;53.170;18.160;2023-10-08T09:14:24;3.10;;;0.70;;
81298;SDS011;70766;53.170;18.160;2023-10-08T09:16:55;1.70;;;0.70;;
81298;SDS011;70766;53.170;18.160;2023-10-08T09:19:24;2.80;;;0.70;;
81298;SDS011;70766;53.170;18.160;2023-10-08T09:22:09;2.90;;;0.60;;
81298;SDS011;70766;53.170;18.160;2023-10-08T09:24:40;2.70;;;0.60;;
81298;SDS011;70766;53.170;18.160;2023-10-08T09:27:10;0.90;;;0.60;;
81298;SDS011;70766;53.170;18.160;2023-10-08T09:29:42;1.50;;;0.90;;
81298;SDS011;70766;53.170;18.160;2023-10-08T09:32:11;2.40;;;0.50;;
81298;SDS011;70766;53.170;18.160;2023-10-08T09:34:52;1.60;;;0.50;;
81298;SDS011;70766;53.170;18.160;2023-10-08T09:37:20;1.70;;;0.70;;
81298;SDS011;70766;53.170;18.160;2023-10-08T09:39:50;1.50;;;0.60;;
81298;SDS011;70766;53.170;18.160;2023-10-08T09:42:20;2.10;;;0.90;;
81298;SDS011;70766;53.170;18.160;2023-10-08T09:44:52;1.70;;;0.80;;
81298;SDS011;70766;53.170;18.160;2023-10-08T09:47:21;1.30;;;0.40;;
81298;SDS011;70766;53.170;18.160;2023-10-08T09:50:02;1.00;;;0.40;;
81298;SDS011;70766;53.170;18.160;2023-10-08T09:55:28;0.80;;;0.50;;
81298;SDS011;70766;53.170;18.160;2023-10-08T09:57:56;1.10;;;0.60;;
81298;SDS011;70766;53.170;18.160;2023-10-08T10:00:25;3.80;;;0.60;;
81298;SDS011;70766;53.170;18.160;2023-10-08T10:03:01;1.70;;;0.70;;
81298;SDS011;70766;53.170;18.160;2023-10-08T10:05:32;1.00;;;0.40;;
81298;SDS011;70766;53.170;18.160;2023-10-08T10:08:03;1.90;;;0.70;;
81298;SDS011;70766;53.170;18.160;2023-10-08T10:10:38;1.50;;;0.60;;
81298;SDS011;70766;53.170;18.160;2023-10-08T10:13:09;1.70;;;0.50;;
81298;SDS011;70766;53.170;18.160;2023-10-08T10:15:38;1.60;;;0.60;;
81298;SDS011;70766;53.170;18.160;2023-10-08T10:20:46;1.60;;;0.60;;
81298;SDS011;70766;53.170;18.160;2023-10-08T10:26:24;1.00;;;0.50;;
81298;SDS011;70766;53.170;18.160;2023-10-08T10:31:43;1.30;;;0.70;;
81298;SDS011;70766;53.170;18.160;2023-10-08T10:34:15;1.60;;;0.70;;
81298;SDS011;70766;53.170;18.160;2023-10-08T10:36:46;1.80;;;0.80;;
81298;SDS011;70766;53.170;18.160;2023-10-08T10:39:17;1.90;;;0.80;;
81298;SDS011;70766;53.170;18.160;2023-10-08T10:41:56;1.60;;;0.70;;
81298;SDS011;70766;53.170;18.160;2023-10-08T10:44:29;1.40;;;0.90;;
81298;SDS011;70766;53.170;18.160;2023-10-08T10:46:59;1.50;;;1.20;;
81298;SDS011;70766;53.170;18.160;2023-10-08T10:49:51;2.30;;;0.70;;
81298;SDS011;70766;53.170;18.160;2023-10-08T10:52:24;1.70;;;0.50;;
81298;SDS011;70766;53.170;18.160;2023-10-08T10:55:14;2.50;;;0.70;;
81298;SDS011;70766;53.170;18.160;2023-10-08T10:57:54;1.60;;;0.70;;
81298;SDS011;70766;53.170;18.160;2023-10-08T11:00:25;1.70;;;1.00;;
81298;SDS011;70766;53.170;18.160;2023-10-08T11:03:01;1.00;;;0.70;;
81298;SDS011;70766;53.170;18.160;2023-10-08T11:05:32;1.20;;;0.60;;
81298;SDS011;70766;53.170;18.160;2023-10-08T11:08:05;1.20;;;0.50;;
81298;SDS011;70766;53.170;18.160;2023-10-08T11:10:37;1.40;;;0.70;;
81298;SDS011;70766;53.170;18.160;2023-10-08T11:13:06;1.40;;;0.50;;
81298;SDS011;70766;53.170;18.160;2023-10-08T11:15:43;1.70;;;0.50;;
81298;SDS011;70766;53.170;18.160;2023-10-08T11:18:18;1.60;;;0.50;;
81298;SDS011;70766;53.170;18.160;2023-10-08T11:20:49;3.00;;;0.80;;
81298;SDS011;70766;53.170;18.160;2023-10-08T11:26:05;2.70;;;0.70;;
81298;SDS011;70766;53.170;18.160;2023-10-08T11:28:34;1.20;;;0.70;;
81298;SDS011;70766;53.170;18.160;2023-10-08T11:31:10;1.90;;;0.80;;
81298;SDS011;70766;53.170;18.160;2023-10-08T11:33:42;2.70;;;0.60;;
81298;SDS011;70766;53.170;18.160;2023-10-08T11:36:23;1.30;;;0.70;;
81298;SDS011;70766;53.170;18.160;2023-10-08T11:39:10;2.70;;;0.70;;
81298;SDS011;70766;53.170;18.160;2023-10-08T11:41:59;0.90;;;0.60;;
81298;SDS011;70766;53.170;18.160;2023-10-08T11:44:32;1.50;;;0.60;;
81298;SDS011;70766;53.170;18.160;2023-10-08T11:47:05;0.80;;;0.60;;
81298;SDS011;70766;53.170;18.160;2023-10-08T11:49:40;0.80;;;0.40;;
81298;SDS011;70766;53.170;18.160;2023-10-08T11:52:19;2.80;;;1.00;;
81298;SDS011;70766;53.170;18.160;2023-10-08T11:54:50;1.40;;;0.60;;
81298;SDS011;70766;53.170;18.160;2023-10-08T11:57:21;1.10;;;0.70;;
81298;SDS011;70766;53.170;18.160;2023-10-08T11:59:50;0.90;;;0.40;;
81298;SDS011;70766;53.170;18.160;2023-10-08T12:02:23;1.00;;;0.70;;
81298;SDS011;70766;53.170;18.160;2023-10-08T12:04:51;1.10;;;0.60;;
81298;SDS011;70766;53.170;18.160;2023-10-08T12:07:20;1.70;;;0.40;;
81298;SDS011;70766;53.170;18.160;2023-10-08T12:09:48;1.70;;;0.70;;
81298;SDS011;70766;53.170;18.160;2023-10-08T12:12:16;1.10;;;0.60;;
81298;SDS011;70766;53.170;18.160;2023-10-08T12:14:51;2.30;;;0.80;;
81298;SDS011;70766;53.170;18.160;2023-10-08T12:17:22;1.40;;;0.60;;
81298;SDS011;70766;53.170;18.160;2023-10-08T12:20:06;1.40;;;0.80;;
81298;SDS011;70766;53.170;18.160;2023-10-08T12:22:51;2.00;;;0.50;;
81298;SDS011;70766;53.170;18.160;2023-10-08T12:25:20;2.00;;;0.70;;
81298;SDS011;70766;53.170;18.160;2023-10-08T12:27:48;1.70;;;0.90;;
81298;SDS011;70766;53.170;18.160;2023-10-08T12:30:17;2.40;;;1.10;;
81298;SDS011;70766;53.170;18.160;2023-10-08T12:32:45;1.40;;;0.70;;
81298;SDS011;70766;53.170;18.160;2023-10-08T12:35:14;1.20;;;0.50;;
81298;SDS011;70766;53.170;18.160;2023-10-08T12:37:42;2.30;;;0.50;;
81298;SDS011;70766;53.170;18.160;2023-10-08T12:40:12;1.20;;;0.70;;
81298;SDS011;70766;53.170;18.160;2023-10-08T12:42:40;2.20;;;0.90;;
81298;SDS011;70766;53.170;18.160;2023-10-08T12:45:12;0.70;;;0.60;;
81298;SDS011;70766;53.170;18.160;2023-10-08T12:47:40;1.00;;;0.50;;
81298;SDS011;70766;53.170;18.160;2023-10-08T12:50:10;1.30;;;0.50;;
81298;SDS011;70766;53.170;18.160;2023-10-08T12:52:43;1.00;;;0.50;;
81298;SDS011;70766;53.170;18.160;2023-10-08T12:55:21;1.30;;;1.00;;
81298;SDS011;70766;53.170;18.160;2023-10-08T12:57:53;1.20;;;0.50;;
81298;SDS011;70766;53.170;18.160;2023-10-08T13:00:23;1.60;;;0.40;;
81298;SDS011;70766;53.170;18.160;2023-10-08T13:02:51;1.00;;;0.60;;
81298;SDS011;70766;53.170;18.160;2023-10-08T13:05:22;2.20;;;0.60;;
81298;SDS011;70766;53.170;18.160;2023-10-08T13:07:57;0.70;;;0.40;;
81298;SDS011;70766;53.170;18.160;2023-10-08T13:10:31;1.90;;;0.50;;
81298;SDS011;70766;53.170;18.160;2023-10-08T13:12:59;1.60;;;0.60;;
81298;SDS011;70766;53.170;18.160;2023-10-08T13:15:27;1.90;;;0.80;;
81298;SDS011;70766;53.170;18.160;2023-10-08T13:17:56;1.60;;;0.50;;
81298;SDS011;70766;53.170;18.160;2023-10-08T13:20:25;1.90;;;0.50;;
81298;SDS011;70766;53.170;18.160;2023-10-08T13:22:54;1.70;;;0.80;;
81298;SDS011;70766;53.170;18.160;2023-10-08T13:25:22;2.20;;;0.40;;
81298;SDS011;70766;53.170;18.160;2023-10-08T13:27:50;1.10;;;0.50;;
81298;SDS011;70766;53.170;18.160;2023-10-08T13:30:19;2.00;;;0.50;;
81298;SDS011;70766;53.170;18.160;2023-10-08T13:32:48;2.00;;;0.50;;
81298;SDS011;70766;53.170;18.160;2023-10-08T13:35:17;1.00;;;0.70;;
81298;SDS011;70766;53.170;18.160;2023-10-08T13:37:45;1.00;;;0.40;;
81298;SDS011;70766;53.170;18.160;2023-10-08T13:40:16;1.60;;;0.60;;
81298;SDS011;70766;53.170;18.160;2023-10-08T13:42:44;1.10;;;0.70;;
81298;SDS011;70766;53.170;18.160;2023-10-08T13:45:12;0.80;;;0.50;;
81298;SDS011;70766;53.170;18.160;2023-10-08T13:47:54;2.00;;;0.50;;
81298;SDS011;70766;53.170;18.160;2023-10-08T13:50:24;1.10;;;0.50;;
81298;SDS011;70766;53.170;18.160;2023-10-08T13:52:52;1.30;;;0.70;;
81298;SDS011;70766;53.170;18.160;2023-10-08T13:55:20;2.30;;;0.60;;
81298;SDS011;70766;53.170;18.160;2023-10-08T13:57:53;2.60;;;0.50;;
81298;SDS011;70766;53.170;18.160;2023-10-08T14:00:22;1.90;;;0.70;;
81298;SDS011;70766;53.170;18.160;2023-10-08T14:02:54;1.60;;;0.60;;
81298;SDS011;70766;53.170;18.160;2023-10-08T14:05:22;2.00;;;0.60;;
81298;SDS011;70766;53.170;18.160;2023-10-08T14:07:51;0.90;;;0.40;;
81298;SDS011;70766;53.170;18.160;2023-10-08T14:10:20;1.90;;;0.80;;
81298;SDS011;70766;53.170;18.160;2023-10-08T14:12:57;1.90;;;0.70;;
81298;SDS011;70766;53.170;18.160;2023-10-08T14:15:29;2.00;;;0.60;;
81298;SDS011;70766;53.170;18.160;2023-10-08T14:18:00;1.70;;;0.50;;
81298;SDS011;70766;53.170;18.160;2023-10-08T14:20:33;2.10;;;0.60;;
81298;SDS011;70766;53.170;18.160;2023-10-08T14:23:01;1.30;;;0.60;;
81298;SDS011;70766;53.170;18.160;2023-10-08T14:25:31;2.20;;;0.70;;
81298;SDS011;70766;53.170;18.160;2023-10-08T14:28:01;1.90;;;0.50;;
81298;SDS011;70766;53.170;18.160;2023-10-08T14:30:32;1.90;;;0.60;;
81298;SDS011;70766;53.170;18.160;2023-10-08T14:33:03;2.30;;;0.60;;
81298;SDS011;70766;53.170;18.160;2023-10-08T14:35:32;1.40;;;0.60;;
81298;SDS011;70766;53.170;18.160;2023-10-08T14:38:18;1.40;;;0.70;;
81298;SDS011;70766;53.170;18.160;2023-10-08T14:41:05;1.50;;;0.40;;
81298;SDS011;70766;53.170;18.160;2023-10-08T14:43:52;0.90;;;0.40;;
81298;SDS011;70766;53.170;18.160;2023-10-08T14:46:19;0.70;;;0.40;;
81298;SDS011;70766;53.170;18.160;2023-10-08T14:48:48;1.80;;;0.50;;
81298;SDS011;70766;53.170;18.160;2023-10-08T14:51:17;0.90;;;0.50;;
81298;SDS011;70766;53.170;18.160;2023-10-08T14:53:47;1.50;;;0.50;;
81298;SDS011;70766;53.170;18.160;2023-10-08T14:56:16;2.10;;;0.50;;
81298;SDS011;70766;53.170;18.160;2023-10-08T14:58:46;1.20;;;0.50;;
81298;SDS011;70766;53.170;18.160;2023-10-08T15:01:15;0.90;;;0.60;;
81298;SDS011;70766;53.170;18.160;2023-10-08T15:03:43;1.10;;;0.50;;
81298;SDS011;70766;53.170;18.160;2023-10-08T15:06:14;1.50;;;0.50;;
81298;SDS011;70766;53.170;18.160;2023-10-08T15:08:42;0.60;;;0.40;;
81298;SDS011;70766;53.170;18.160;2023-10-08T15:11:10;0.60;;;0.40;;
81298;SDS011;70766;53.170;18.160;2023-10-08T15:13:38;1.10;;;0.40;;
81298;SDS011;70766;53.170;18.160;2023-10-08T15:16:06;0.80;;;0.40;;
81298;SDS011;70766;53.170;18.160;2023-10-08T15:18:34;1.10;;;0.60;;
81298;SDS011;70766;53.170;18.160;2023-10-08T15:21:10;0.60;;;0.40;;